Time;durP1;ratioP1;P1;durP2;ratioP2;P2;SDS_P1;SDS_P2;PMS_P1;PMS_P2;Temp;Humidity;BMP_temperature;BMP_pressure;BME280_temperature;BME280_humidity;BME280_pressure;Samples;Min_cycle;Max_cycle;Signal;HPM_P1;HPM_P2
2021/09/12 00:02:13;;;;;;;26.60;24.00;;;18.10;99.90;;;;;;5042304;28;20570;-69
2021/09/12 00:04:41;;;;;;;26.90;24.60;;;18.10;99.90;;;;;;5044278;28;20973;-69
2021/09/12 00:07:07;;;;;;;28.53;24.67;;;18.00;99.90;;;;;;5038654;28;20470;-69
2021/09/12 00:09:36;;;;;;;26.60;24.37;;;18.00;99.90;;;;;;5049450;28;20462;-72
2021/09/12 00:12:04;;;;;;;26.87;24.03;;;18.00;99.90;;;;;;5045835;28;20490;-69
2021/09/12 00:14:31;;;;;;;27.47;24.97;;;17.90;99.90;;;;;;5040205;28;20475;-70
2021/09/12 00:16:58;;;;;;;27.50;25.30;;;17.80;99.90;;;;;;5043264;28;20456;-68
2021/09/12 00:19:25;;;;;;;27.47;24.97;;;17.70;99.90;;;;;;5041069;28;20582;-70
2021/09/12 00:21:52;;;;;;;27.00;24.60;;;17.60;99.90;;;;;;5047066;28;20487;-69
2021/09/12 00:24:19;;;;;;;28.03;25.60;;;17.60;99.90;;;;;;5047509;28;20455;-68
2021/09/12 00:26:48;;;;;;;28.20;25.60;;;17.60;99.90;;;;;;5053639;28;20938;-70
2021/09/12 00:29:16;;;;;;;26.60;24.33;;;17.70;99.90;;;;;;5052378;28;20453;-70
2021/09/12 00:31:43;;;;;;;28.67;25.77;;;17.70;99.90;;;;;;5038299;28;21617;-69
2021/09/12 00:34:10;;;;;;;27.23;24.70;;;17.70;99.90;;;;;;5040723;28;20543;-71
2021/09/12 00:36:39;;;;;;;26.60;24.27;;;17.70;99.90;;;;;;5040816;28;20468;-69
2021/09/12 00:39:06;;;;;;;25.60;23.30;;;17.80;99.90;;;;;;5046207;28;20459;-69
2021/09/12 00:41:38;;;;;;;27.90;25.30;;;17.80;99.90;;;;;;5044552;28;20451;-71
2021/09/12 00:44:09;;;;;;;28.60;23.30;;;17.80;99.90;;;;;;5045192;28;20506;-69
2021/09/12 00:46:40;;;;;;;26.87;24.23;;;17.80;99.90;;;;;;5037757;28;20468;-69
2021/09/12 00:49:07;;;;;;;26.17;23.73;;;17.80;99.90;;;;;;5048300;28;20459;-69
2021/09/12 00:51:33;;;;;;;27.20;24.50;;;17.80;99.90;;;;;;5039771;28;20459;-71
2021/09/12 00:54:03;;;;;;;25.47;23.17;;;17.80;99.90;;;;;;5050757;28;20469;-71
2021/09/12 00:56:31;;;;;;;27.60;24.73;;;17.80;99.90;;;;;;5045556;28;20466;-68
2021/09/12 00:59:02;;;;;;;26.07;23.63;;;17.90;99.90;;;;;;5039613;28;20455;-69
2021/09/12 01:01:31;;;;;;;24.27;22.27;;;18.00;99.90;;;;;;5046374;28;20456;-71
2021/09/12 01:03:58;;;;;;;25.67;23.23;;;18.00;99.90;;;;;;5044710;28;20484;-70
2021/09/12 01:06:25;;;;;;;25.27;23.07;;;18.00;99.90;;;;;;5040573;28;20488;-71
2021/09/12 01:08:52;;;;;;;25.37;23.17;;;18.00;99.90;;;;;;5042493;28;20800;-69
2021/09/12 01:11:21;;;;;;;25.20;22.87;;;17.90;99.90;;;;;;5042711;28;20976;-70
2021/09/12 01:13:47;;;;;;;27.63;23.90;;;17.90;99.90;;;;;;5046099;28;20455;-69
2021/09/12 01:16:18;;;;;;;23.90;21.90;;;17.90;99.90;;;;;;5038936;28;20534;-69
2021/09/12 01:18:47;;;;;;;24.97;22.47;;;17.90;99.90;;;;;;5040507;28;20447;-69
2021/09/12 01:21:15;;;;;;;23.87;21.10;;;17.90;99.90;;;;;;5043165;28;20458;-69
2021/09/12 01:23:43;;;;;;;25.53;22.07;;;17.80;99.90;;;;;;5041332;28;20496;-69
2021/09/12 01:26:13;;;;;;;23.77;21.50;;;17.80;99.90;;;;;;5049883;28;20860;-69
2021/09/12 01:28:43;;;;;;;23.50;21.27;;;17.80;99.90;;;;;;5047492;28;20810;-69
2021/09/12 01:31:20;;;;;;;23.80;21.77;;;17.80;99.90;;;;;;5055629;28;20451;-71
2021/09/12 01:33:48;;;;;;;24.17;21.87;;;17.80;99.90;;;;;;5048015;28;20490;-69
2021/09/12 01:36:16;;;;;;;23.70;21.83;;;17.80;99.90;;;;;;5045067;28;20460;-71
2021/09/12 01:38:43;;;;;;;26.13;23.60;;;17.60;99.90;;;;;;5044745;28;20453;-69
2021/09/12 01:41:12;;;;;;;25.30;23.00;;;17.60;99.90;;;;;;5046390;28;20461;-69
2021/09/12 01:43:46;;;;;;;25.07;22.80;;;17.60;99.90;;;;;;5052006;28;20501;-69
2021/09/12 01:46:16;;;;;;;24.60;22.43;;;17.50;99.90;;;;;;5044950;28;20483;-71
2021/09/12 01:48:43;;;;;;;25.17;22.77;;;17.50;99.90;;;;;;5046780;28;20465;-70
2021/09/12 01:51:11;;;;;;;24.20;21.90;;;17.40;99.90;;;;;;5048866;28;20467;-70
2021/09/12 01:53:39;;;;;;;26.07;23.77;;;17.30;99.90;;;;;;5052912;28;20458;-71
2021/09/12 01:56:06;;;;;;;25.97;23.47;;;17.10;99.90;;;;;;5052854;28;20543;-69
2021/09/12 01:58:34;;;;;;;27.37;24.77;;;17.10;99.90;;;;;;5048887;28;20464;-69
2021/09/12 02:01:02;;;;;;;24.37;22.27;;;17.10;99.90;;;;;;5053015;28;20470;-69
2021/09/12 02:03:30;;;;;;;25.40;23.10;;;17.10;99.90;;;;;;5039130;28;20494;-69
2021/09/12 02:05:57;;;;;;;26.37;23.87;;;17.00;99.90;;;;;;5038342;28;20483;-69
2021/09/12 02:08:24;;;;;;;26.07;23.40;;;17.00;99.90;;;;;;5050067;28;20467;-69
2021/09/12 02:10:54;;;;;;;25.17;22.77;;;16.80;99.90;;;;;;5046721;28;20470;-69
2021/09/12 02:13:22;;;;;;;26.63;23.87;;;16.70;99.90;;;;;;5047775;28;20448;-69
2021/09/12 02:15:52;;;;;;;27.17;24.77;;;16.70;99.90;;;;;;5050279;28;20464;-69
2021/09/12 02:18:19;;;;;;;25.63;23.13;;;16.70;99.90;;;;;;5038242;28;20472;-71
2021/09/12 02:20:46;;;;;;;25.80;23.60;;;16.60;99.90;;;;;;5042812;28;20459;-69
2021/09/12 02:23:13;;;;;;;26.93;24.07;;;16.60;99.90;;;;;;5043231;28;20480;-69
2021/09/12 02:25:43;;;;;;;26.00;23.20;;;16.60;99.90;;;;;;5047872;28;20459;-71
2021/09/12 02:28:10;;;;;;;27.80;22.80;;;16.50;99.90;;;;;;5045131;28;20506;-69
2021/09/12 02:30:38;;;;;;;23.83;21.73;;;16.50;99.90;;;;;;5046647;28;20556;-69
2021/09/12 02:33:07;;;;;;;24.70;22.63;;;16.50;99.90;;;;;;5039361;28;20959;-69
2021/09/12 02:35:34;;;;;;;22.53;20.50;;;16.30;99.90;;;;;;5047363;28;20479;-70
2021/09/12 02:38:01;;;;;;;24.90;22.30;;;16.20;99.90;;;;;;5046989;28;20456;-69
2021/09/12 02:40:28;;;;;;;23.83;21.73;;;16.20;99.90;;;;;;5046151;28;20460;-71
2021/09/12 02:42:55;;;;;;;23.50;21.60;;;16.10;99.90;;;;;;5041821;28;20476;-72
2021/09/12 02:45:23;;;;;;;30.97;22.17;;;16.00;99.90;;;;;;5052824;28;20551;-69
2021/09/12 02:47:51;;;;;;;25.00;22.43;;;15.90;99.90;;;;;;5052721;28;20839;-69
2021/09/12 02:50:19;;;;;;;26.20;22.10;;;15.80;99.90;;;;;;5052064;28;20484;-69
2021/09/12 02:52:46;;;;;;;24.47;21.93;;;15.70;99.90;;;;;;5040125;28;20528;-69
2021/09/12 02:55:14;;;;;;;24.77;22.57;;;15.70;99.90;;;;;;5044389;28;20460;-69
2021/09/12 02:57:42;;;;;;;23.00;21.00;;;15.50;99.90;;;;;;5049443;28;20468;-69
2021/09/12 03:00:10;;;;;;;25.20;22.73;;;15.40;99.90;;;;;;5054108;28;20490;-71
2021/09/12 03:02:37;;;;;;;25.20;22.90;;;15.30;99.90;;;;;;5040933;28;20484;-69
2021/09/12 03:05:06;;;;;;;25.77;23.50;;;15.40;99.90;;;;;;5039407;28;20548;-71
2021/09/12 03:07:35;;;;;;;26.60;23.67;;;15.40;99.90;;;;;;5039208;28;20507;-70
2021/09/12 03:10:02;;;;;;;25.33;23.23;;;15.50;99.90;;;;;;5047526;28;20466;-69
2021/09/12 03:12:29;;;;;;;26.37;23.37;;;15.50;99.90;;;;;;5048406;28;20448;-69
2021/09/12 03:14:57;;;;;;;25.80;23.47;;;15.60;99.90;;;;;;5044782;28;20452;-69
2021/09/12 03:17:24;;;;;;;27.57;24.37;;;15.60;99.90;;;;;;5040951;28;20455;-72
2021/09/12 03:19:52;;;;;;;28.93;24.70;;;15.50;99.90;;;;;;5040127;28;21002;-69
2021/09/12 03:22:19;;;;;;;26.43;23.80;;;15.50;99.90;;;;;;5043134;28;20461;-72
2021/09/12 03:24:47;;;;;;;27.73;25.07;;;15.50;99.90;;;;;;5056553;28;20504;-69
2021/09/12 03:27:14;;;;;;;26.97;24.43;;;15.50;99.90;;;;;;5041338;28;20457;-69
2021/09/12 03:29:41;;;;;;;26.50;23.90;;;15.40;99.90;;;;;;5054986;28;20541;-69
2021/09/12 03:32:08;;;;;;;26.50;24.10;;;15.40;99.90;;;;;;5044217;28;20456;-69
2021/09/12 03:34:35;;;;;;;29.27;24.40;;;15.40;99.90;;;;;;5042979;28;20490;-69
2021/09/12 03:37:03;;;;;;;25.80;23.27;;;15.40;99.90;;;;;;5046152;28;20478;-69
2021/09/12 03:39:31;;;;;;;27.00;24.23;;;15.30;99.90;;;;;;5042115;28;20483;-71
2021/09/12 03:41:59;;;;;;;26.70;23.97;;;15.30;99.90;;;;;;5050214;28;20541;-69
2021/09/12 03:44:27;;;;;;;24.97;22.17;;;15.20;99.90;;;;;;5047079;28;20498;-70
2021/09/12 03:46:55;;;;;;;24.03;21.83;;;15.30;99.90;;;;;;5042541;28;20539;-69
2021/09/12 03:49:23;;;;;;;29.30;26.40;;;15.20;99.90;;;;;;5041951;28;21257;-72
2021/09/12 03:51:51;;;;;;;28.00;24.70;;;15.20;99.90;;;;;;5059329;28;20458;-70
2021/09/12 03:54:18;;;;;;;26.10;23.50;;;15.10;99.90;;;;;;5056120;28;20478;-69
2021/09/12 03:56:47;;;;;;;28.17;25.33;;;15.10;99.90;;;;;;5043838;28;20455;-70
2021/09/12 03:59:15;;;;;;;27.70;24.77;;;15.00;99.90;;;;;;5039006;28;20459;-69
2021/09/12 04:01:42;;;;;;;26.07;23.57;;;15.00;99.90;;;;;;5038342;28;20463;-69
2021/09/12 04:04:10;;;;;;;27.97;25.13;;;14.90;99.90;;;;;;5034765;28;20484;-68
2021/09/12 04:06:37;;;;;;;27.40;24.67;;;14.80;99.90;;;;;;5053359;28;20477;-69
2021/09/12 04:09:04;;;;;;;28.97;26.23;;;14.80;99.90;;;;;;5051135;28;20460;-70
2021/09/12 04:11:32;;;;;;;27.17;24.33;;;14.80;99.90;;;;;;5046190;28;20813;-69
2021/09/12 04:14:00;;;;;;;26.93;24.53;;;14.70;99.90;;;;;;5042901;28;21135;-70
2021/09/12 04:16:28;;;;;;;28.17;25.30;;;14.70;99.90;;;;;;5043609;28;20465;-70
2021/09/12 04:18:56;;;;;;;27.70;24.90;;;14.70;99.90;;;;;;5036893;28;20452;-69
2021/09/12 04:21:23;;;;;;;26.53;23.77;;;14.70;99.90;;;;;;5042001;28;20454;-70
2021/09/12 04:23:51;;;;;;;27.93;25.13;;;14.70;99.90;;;;;;5038662;28;20483;-69
2021/09/12 04:26:19;;;;;;;27.30;23.87;;;14.70;99.90;;;;;;5044404;28;20452;-69
2021/09/12 04:28:47;;;;;;;25.33;23.13;;;14.70;99.90;;;;;;5041199;28;20463;-70
2021/09/12 04:31:14;;;;;;;25.93;23.23;;;14.60;99.90;;;;;;5044871;28;20939;-72
2021/09/12 04:33:43;;;;;;;25.27;23.13;;;14.60;99.90;;;;;;5046344;28;20479;-70
2021/09/12 04:36:10;;;;;;;24.77;22.30;;;14.60;99.90;;;;;;5040615;28;20566;-70
2021/09/12 04:38:37;;;;;;;25.60;23.10;;;14.60;99.90;;;;;;5040711;28;20495;-72
2021/09/12 04:41:04;;;;;;;28.90;24.67;;;14.60;99.90;;;;;;5045174;28;20468;-70
2021/09/12 04:43:31;;;;;;;25.87;23.40;;;14.60;99.90;;;;;;5050981;28;20762;-71
2021/09/12 04:45:59;;;;;;;25.80;23.50;;;14.60;99.90;;;;;;5044758;28;20448;-70
2021/09/12 04:48:26;;;;;;;27.17;24.10;;;14.60;99.90;;;;;;5048082;28;20459;-71
2021/09/12 04:50:56;;;;;;;25.57;23.37;;;14.50;99.90;;;;;;5047265;28;20482;-72
2021/09/12 04:53:24;;;;;;;26.30;23.77;;;14.50;99.90;;;;;;5049834;28;20465;-72
2021/09/12 04:55:52;;;;;;;25.27;22.97;;;14.50;99.90;;;;;;5050198;28;20488;-69
2021/09/12 04:58:20;;;;;;;26.30;23.53;;;14.40;99.90;;;;;;5039564;28;20456;-70
2021/09/12 05:00:47;;;;;;;29.13;26.20;;;14.40;99.90;;;;;;5040198;28;20460;-69
2021/09/12 05:03:15;;;;;;;26.87;24.10;;;14.30;99.90;;;;;;5043706;28;20471;-69
2021/09/12 05:05:42;;;;;;;25.50;23.20;;;14.30;99.90;;;;;;5049001;28;20514;-72
2021/09/12 05:08:11;;;;;;;27.13;24.40;;;14.30;99.90;;;;;;5050383;28;20460;-70
2021/09/12 05:10:38;;;;;;;29.77;25.57;;;14.20;99.90;;;;;;5051041;28;20471;-70
2021/09/12 05:13:05;;;;;;;27.50;25.17;;;14.20;99.90;;;;;;5041830;28;20460;-69
2021/09/12 05:15:32;;;;;;;26.73;24.20;;;14.10;99.90;;;;;;5049847;28;20456;-70
2021/09/12 05:17:59;;;;;;;28.30;25.67;;;14.10;99.90;;;;;;5044352;28;20470;-70
2021/09/12 05:20:26;;;;;;;27.20;24.30;;;14.10;99.90;;;;;;5047575;28;20448;-70
2021/09/12 05:22:54;;;;;;;28.20;25.30;;;14.10;99.90;;;;;;5044663;28;20950;-71
2021/09/12 05:25:22;;;;;;;27.53;25.00;;;14.10;99.90;;;;;;5050136;28;20443;-70
2021/09/12 05:27:49;;;;;;;28.40;25.40;;;14.10;99.90;;;;;;5040065;28;20471;-70
2021/09/12 05:30:16;;;;;;;28.03;24.70;;;14.10;99.90;;;;;;5041802;28;20455;-70
2021/09/12 05:32:46;;;;;;;26.57;24.10;;;14.10;99.90;;;;;;5042647;28;20472;-72
2021/09/12 05:35:14;;;;;;;28.47;25.20;;;14.20;99.90;;;;;;5040704;28;20575;-70
2021/09/12 05:37:41;;;;;;;29.30;26.53;;;14.20;99.90;;;;;;5048255;28;20518;-70
2021/09/12 05:40:09;;;;;;;28.93;26.03;;;14.20;99.90;;;;;;5049386;28;20448;-70
2021/09/12 05:42:38;;;;;;;31.63;28.27;;;14.30;99.90;;;;;;5043427;28;20969;-70
2021/09/12 05:45:06;;;;;;;29.37;26.57;;;14.20;99.90;;;;;;5042537;28;20499;-70
2021/09/12 05:47:34;;;;;;;29.30;26.17;;;14.30;99.90;;;;;;5043957;28;20451;-69
2021/09/12 05:50:01;;;;;;;27.63;24.70;;;14.30;99.90;;;;;;5039992;28;20486;-69
2021/09/12 05:52:28;;;;;;;29.63;25.73;;;14.30;99.90;;;;;;5049663;28;20486;-70
2021/09/12 05:54:56;;;;;;;30.27;27.00;;;14.30;99.90;;;;;;5045233;28;20586;-72
2021/09/12 05:57:24;;;;;;;28.00;25.37;;;14.30;99.90;;;;;;5039506;28;20503;-70
2021/09/12 05:59:53;;;;;;;30.20;26.87;;;14.20;99.90;;;;;;5044552;28;20455;-71
2021/09/12 06:02:21;;;;;;;30.30;27.20;;;14.30;99.90;;;;;;5044487;28;21011;-69
2021/09/12 06:04:49;;;;;;;28.13;25.60;;;14.40;99.90;;;;;;5045864;28;20513;-71
2021/09/12 06:07:15;;;;;;;29.87;26.70;;;14.50;99.90;;;;;;5050352;28;20477;-69
2021/09/12 06:09:42;;;;;;;28.77;25.63;;;14.60;99.90;;;;;;5042217;28;20463;-71
2021/09/12 06:12:09;;;;;;;36.10;26.33;;;14.70;99.90;;;;;;5038854;28;20464;-71
2021/09/12 06:14:37;;;;;;;28.60;25.90;;;14.80;99.90;;;;;;5043144;28;20461;-71
2021/09/12 06:17:06;;;;;;;28.17;24.80;;;15.00;99.90;;;;;;5039008;28;20498;-70
2021/09/12 06:19:34;;;;;;;29.80;26.60;;;15.00;99.90;;;;;;5042784;28;20963;-70
2021/09/12 06:22:00;;;;;;;29.07;26.33;;;15.10;99.90;;;;;;5041443;28;20489;-70
2021/09/12 06:24:28;;;;;;;28.67;25.97;;;15.10;99.90;;;;;;5042407;28;20824;-71
2021/09/12 06:26:56;;;;;;;28.40;25.70;;;15.30;99.90;;;;;;5038352;28;20467;-70
2021/09/12 06:29:23;;;;;;;30.23;27.00;;;15.40;99.90;;;;;;5042137;28;20536;-70
2021/09/12 06:31:51;;;;;;;28.60;26.00;;;15.40;99.90;;;;;;5048275;28;20456;-70
2021/09/12 06:34:19;;;;;;;27.37;24.53;;;15.40;99.90;;;;;;5052769;28;20477;-72
2021/09/12 06:36:46;;;;;;;33.03;24.67;;;15.50;99.90;;;;;;5044873;28;20457;-70
2021/09/12 06:39:14;;;;;;;25.50;23.00;;;15.60;99.90;;;;;;5040739;28;20997;-70
2021/09/12 06:41:41;;;;;;;27.90;24.87;;;15.60;99.90;;;;;;5041074;28;20456;-70
2021/09/12 06:44:08;;;;;;;27.00;24.57;;;15.60;99.90;;;;;;5040830;28;20490;-70
2021/09/12 06:46:35;;;;;;;24.90;22.70;;;15.60;99.90;;;;;;5039030;28;20824;-70
2021/09/12 06:49:03;;;;;;;26.17;22.90;;;15.70;99.90;;;;;;5043194;28;20456;-70
2021/09/12 06:51:33;;;;;;;29.80;24.17;;;15.70;99.90;;;;;;5040959;28;20467;-71
2021/09/12 06:54:00;;;;;;;28.27;23.13;;;15.70;99.90;;;;;;5041810;28;20549;-70
2021/09/12 06:56:27;;;;;;;27.73;22.40;;;15.80;99.90;;;;;;5043708;28;20466;-70
2021/09/12 06:58:54;;;;;;;27.50;23.60;;;16.00;99.90;;;;;;5041067;28;20466;-69
2021/09/12 07:01:22;;;;;;;25.90;22.90;;;16.20;99.90;;;;;;5042451;28;20571;-70
2021/09/12 07:03:49;;;;;;;26.00;23.50;;;16.30;99.90;;;;;;5042385;28;20982;-71
2021/09/12 07:06:17;;;;;;;25.13;22.90;;;16.30;99.90;;;;;;5039196;28;21041;-70
2021/09/12 07:08:46;;;;;;;23.87;21.77;;;16.30;99.90;;;;;;5045274;28;20453;-72
2021/09/12 07:11:13;;;;;;;24.97;22.40;;;16.40;99.90;;;;;;5039276;28;20468;-72
2021/09/12 07:13:41;;;;;;;24.60;21.60;;;16.30;99.90;;;;;;5046729;28;20468;-69
2021/09/12 07:16:09;;;;;;;22.60;20.40;;;16.40;99.90;;;;;;5044524;28;20946;-69
2021/09/12 07:18:36;;;;;;;22.70;19.80;;;16.50;99.90;;;;;;5039827;28;20456;-69
2021/09/12 07:21:04;;;;;;;20.50;18.70;;;16.50;99.90;;;;;;5038494;28;20456;-70
2021/09/12 07:23:31;;;;;;;21.80;19.47;;;16.70;99.90;;;;;;5038339;28;20483;-72
2021/09/12 07:25:59;;;;;;;20.40;18.77;;;16.90;99.90;;;;;;5049504;28;20451;-70
2021/09/12 07:28:26;;;;;;;21.23;19.13;;;17.10;99.90;;;;;;5047233;28;20451;-69
2021/09/12 07:30:56;;;;;;;20.87;19.07;;;17.40;99.90;;;;;;5047361;28;20455;-69
2021/09/12 07:33:23;;;;;;;20.83;18.73;;;17.60;99.90;;;;;;5038759;28;20459;-69
2021/09/12 07:35:51;;;;;;;19.30;17.50;;;17.80;99.90;;;;;;5040677;28;20553;-69
2021/09/12 07:38:18;;;;;;;20.63;18.93;;;17.80;99.90;;;;;;5046224;28;20460;-70
2021/09/12 07:40:45;;;;;;;20.03;18.00;;;17.90;99.90;;;;;;5042201;28;20464;-72
2021/09/12 07:43:14;;;;;;;18.27;16.87;;;18.00;99.90;;;;;;5039351;28;20466;-69
2021/09/12 07:45:41;;;;;;;19.30;17.30;;;18.00;99.90;;;;;;5035517;28;21136;-70
2021/09/12 07:48:08;;;;;;;19.40;17.53;;;18.10;99.90;;;;;;5040335;28;20473;-70
2021/09/12 07:50:35;;;;;;;19.10;17.60;;;18.00;99.90;;;;;;5042410;28;20460;-69
2021/09/12 07:53:02;;;;;;;20.10;18.60;;;18.00;99.90;;;;;;5044035;28;20451;-71
2021/09/12 07:55:29;;;;;;;19.20;17.77;;;18.00;99.90;;;;;;5042239;28;20455;-69
2021/09/12 07:57:57;;;;;;;20.17;18.33;;;18.00;99.90;;;;;;5045342;28;20658;-71
2021/09/12 08:00:26;;;;;;;18.03;16.47;;;18.00;99.90;;;;;;5040869;28;21113;-69
2021/09/12 08:02:53;;;;;;;17.40;15.90;;;18.20;99.90;;;;;;5043056;28;21024;-69
2021/09/12 08:05:23;;;;;;;18.00;16.50;;;18.20;99.90;;;;;;5039841;28;21041;-70
2021/09/12 08:07:50;;;;;;;17.07;15.97;;;18.00;99.90;;;;;;5038529;28;20471;-69
2021/09/12 08:10:18;;;;;;;18.07;16.17;;;18.00;99.90;;;;;;5041725;28;20496;-69
2021/09/12 08:12:45;;;;;;;18.30;16.53;;;18.00;99.90;;;;;;5042704;28;20460;-68
2021/09/12 08:15:14;;;;;;;17.67;16.13;;;18.20;99.90;;;;;;5046132;28;20456;-69
2021/09/12 08:17:44;;;;;;;16.87;15.67;;;18.50;99.90;;;;;;5035784;28;20471;-70
2021/09/12 08:20:11;;;;;;;16.67;15.40;;;18.60;99.90;;;;;;5044496;28;20785;-69
2021/09/12 08:22:38;;;;;;;21.27;15.83;;;18.40;99.90;;;;;;5034635;28;20465;-69
2021/09/12 08:25:06;;;;;;;20.73;15.40;;;18.30;99.90;;;;;;5043234;28;20840;-69
2021/09/12 08:27:33;;;;;;;15.93;14.60;;;18.30;99.90;;;;;;5043780;28;20818;-69
2021/09/12 08:30:01;;;;;;;15.80;14.30;;;18.50;99.90;;;;;;5053562;28;20468;-69
2021/09/12 08:32:29;;;;;;;15.13;13.90;;;18.80;99.90;;;;;;5046248;28;20511;-70
2021/09/12 08:34:57;;;;;;;14.97;13.87;;;18.90;99.90;;;;;;5052845;28;20475;-69
2021/09/12 08:37:25;;;;;;;15.30;14.00;;;19.00;99.90;;;;;;5042677;28;20821;-69
2021/09/12 08:39:54;;;;;;;15.60;14.60;;;18.70;99.90;;;;;;5041221;28;20467;-70
2021/09/12 08:42:22;;;;;;;14.80;13.70;;;19.00;99.90;;;;;;5039334;28;20456;-69
2021/09/12 08:44:51;;;;;;;14.87;13.50;;;19.10;99.90;;;;;;5038336;28;20483;-69
2021/09/12 08:47:21;;;;;;;14.60;13.40;;;19.20;99.90;;;;;;5042320;28;20467;-69
2021/09/12 08:49:48;;;;;;;13.77;12.83;;;19.30;99.90;;;;;;5041595;28;20479;-69
2021/09/12 08:52:16;;;;;;;13.63;12.50;;;19.30;99.90;;;;;;5038769;28;20554;-71
2021/09/12 08:54:44;;;;;;;13.50;12.70;;;19.30;99.90;;;;;;5041571;28;20463;-69
2021/09/12 08:58:11;;;;;;;14.00;12.80;;;19.40;99.90;;;;;;5042056;28;20460;-69
2021/09/12 09:04:44;;;;;;;14.37;13.37;;;19.80;99.90;;;;;;4821576;29;20597;-69
2021/09/12 09:07:36;;;;;;;14.60;13.50;;;19.70;99.90;;;;;;4769283;29;20499;-70
2021/09/12 09:10:33;;;;;;;15.60;14.37;;;19.70;99.90;;;;;;4814378;29;20474;-68
2021/09/12 09:13:39;;;;;;;14.03;13.33;;;19.60;99.90;;;;;;4893727;29;20472;-69
2021/09/12 09:16:36;;;;;;;13.50;12.80;;;19.60;99.90;;;;;;4791879;29;20480;-71
2021/09/12 09:19:33;;;;;;;13.57;12.87;;;19.60;99.90;;;;;;4794865;29;20643;-71
2021/09/12 09:22:30;;;;;;;14.47;13.03;;;19.70;99.90;;;;;;4851506;29;20613;-69
2021/09/12 09:25:27;;;;;;;13.67;12.80;;;20.40;99.90;;;;;;4859397;29;20494;-69
2021/09/12 09:31:35;;;;;;;13.00;12.20;;;21.60;99.90;;;;;;4836305;29;20495;-70
2021/09/12 09:34:31;;;;;;;13.57;12.87;;;21.80;99.90;;;;;;4855936;29;20558;-69
2021/09/12 09:37:28;;;;;;;14.10;13.07;;;21.80;99.90;;;;;;4868342;29;20464;-68
2021/09/12 09:40:25;;;;;;;13.60;12.90;;;21.70;99.90;;;;;;4873275;29;20464;-69
2021/09/12 09:43:25;;;;;;;13.47;12.67;;;21.80;99.90;;;;;;4857716;29;20478;-69
2021/09/12 09:46:22;;;;;;;14.57;13.57;;;22.20;99.90;;;;;;4866260;29;20547;-70
2021/09/12 09:52:29;;;;;;;14.10;13.40;;;22.30;99.90;;;;;;4835238;29;20472;-70
2021/09/12 09:55:27;;;;;;;14.07;13.27;;;22.80;99.90;;;;;;4846577;29;20466;-70
2021/09/12 09:58:23;;;;;;;15.40;13.87;;;22.70;99.90;;;;;;4770897;29;20560;-69
2021/09/12 10:01:20;;;;;;;13.73;12.97;;;21.90;99.90;;;;;;4933834;28;20468;-70
2021/09/12 10:04:16;;;;;;;13.70;12.90;;;21.70;99.90;;;;;;4938771;28;20461;-69
2021/09/12 10:10:24;;;;;;;13.23;12.63;;;22.50;99.90;;;;;;4853332;29;20473;-70
2021/09/12 10:13:21;;;;;;;12.70;12.20;;;22.50;99.90;;;;;;4876899;29;20824;-70
2021/09/12 10:16:18;;;;;;;13.30;12.60;;;22.70;99.90;;;;;;4874687;29;20891;-69
2021/09/12 10:28:50;;;;;;;13.43;12.73;;;22.30;99.90;;;;;;4872019;29;21001;-70
2021/09/12 10:31:50;;;;;;;14.53;13.30;;;22.60;99.90;;;;;;4845021;29;20472;-71
2021/09/12 10:34:47;;;;;;;13.57;12.67;;;23.00;99.90;;;;;;4871223;29;20903;-71
2021/09/12 10:37:44;;;;;;;13.60;12.60;;;23.00;99.90;;;;;;4834076;29;20472;-70
2021/09/12 10:40:14;;;;;;;15.07;13.80;;;23.40;99.90;;;;;;4847992;29;20561;-69
2021/09/12 10:42:43;;;;;;;13.67;12.67;;;23.20;99.90;;;;;;4911661;28;20466;-70
2021/09/12 10:45:22;;;;;;;14.93;13.53;;;23.20;99.90;;;;;;5042841;28;20464;-72
2021/09/12 10:47:50;;;;;;;14.57;13.57;;;22.90;99.90;;;;;;5043574;28;20459;-69
2021/09/12 10:50:42;;;;;;;14.73;13.93;;;23.30;99.90;;;;;;5040431;28;20463;-70
2021/09/12 10:53:09;;;;;;;13.60;12.80;;;23.30;99.90;;;;;;5052473;28;20514;-69
2021/09/12 10:56:01;;;;;;;14.07;13.40;;;24.10;99.90;;;;;;5052576;28;20859;-69
2021/09/12 10:58:30;;;;;;;14.77;13.57;;;24.30;99.90;;;;;;5055212;28;20468;-69
2021/09/12 11:00:59;;;;;;;14.23;13.53;;;24.10;99.90;;;;;;5038516;28;20466;-72
2021/09/12 11:03:26;;;;;;;14.00;13.00;;;24.80;99.90;;;;;;5040611;28;20460;-73
2021/09/12 11:05:56;;;;;;;14.30;13.50;;;25.50;99.90;;;;;;5043814;28;20981;-71
2021/09/12 11:08:33;;;;;;;14.93;14.07;;;25.00;99.90;;;;;;5044012;28;20805;-69
2021/09/12 11:11:02;;;;;;;14.37;13.60;;;25.40;99.90;;;;;;5041491;28;20456;-72
2021/09/12 11:13:29;;;;;;;13.43;12.73;;;25.40;99.90;;;;;;5047934;28;20455;-72
2021/09/12 11:16:06;;;;;;;14.20;13.40;;;25.10;99.90;;;;;;5044682;28;20467;-69
2021/09/12 11:18:46;;;;;;;13.80;13.03;;;25.00;99.90;;;;;;5053441;28;20956;-68
2021/09/12 11:21:32;;;;;;;14.07;13.27;;;24.30;99.90;;;;;;5037554;28;20947;-71
2021/09/12 11:24:02;;;;;;;13.93;13.20;;;24.80;99.90;;;;;;5041125;28;20526;-68
2021/09/12 11:26:39;;;;;;;14.20;13.50;;;24.60;99.90;;;;;;5043821;28;20519;-69
2021/09/12 11:29:09;;;;;;;14.00;13.20;;;24.00;99.90;;;;;;5040986;28;20479;-70
2021/09/12 11:31:38;;;;;;;13.73;12.70;;;24.20;99.90;;;;;;5049966;28;20452;-69
2021/09/12 11:34:05;;;;;;;14.27;13.17;;;25.30;99.90;;;;;;5052271;28;20501;-69
2021/09/12 11:36:44;;;;;;;15.47;14.07;;;25.50;99.90;;;;;;5041442;28;20464;-72
2021/09/12 11:39:12;;;;;;;13.20;12.20;;;26.30;99.90;;;;;;5039668;28;21532;-67
2021/09/12 11:41:42;;;;;;;12.80;12.13;;;26.40;99.90;;;;;;5052997;28;20474;-70
2021/09/12 11:44:10;;;;;;;13.10;12.40;;;26.60;99.80;;;;;;5047052;28;20455;-69
2021/09/12 11:46:47;;;;;;;13.13;12.33;;;26.90;98.90;;;;;;5045164;28;20590;-68
2021/09/12 11:49:15;;;;;;;13.57;12.87;;;26.40;99.30;;;;;;5042101;28;20460;-69
2021/09/12 11:51:46;;;;;;;14.30;13.67;;;27.30;99.70;;;;;;5035258;28;20510;-69
2021/09/12 11:54:17;;;;;;;14.07;13.27;;;27.30;98.20;;;;;;5047749;28;20460;-68
2021/09/12 11:56:55;;;;;;;14.33;13.40;;;26.50;98.40;;;;;;5041233;28;20956;-69
2021/09/12 11:59:22;;;;;;;14.23;13.13;;;27.20;97.20;;;;;;5038195;28;20463;-73
2021/09/12 12:01:51;;;;;;;13.60;12.73;;;27.30;96.70;;;;;;5040982;28;20459;-68
2021/09/12 12:04:19;;;;;;;14.20;13.50;;;27.80;97.30;;;;;;5045924;28;20805;-72
2021/09/12 12:06:47;;;;;;;13.33;12.53;;;27.10;97.70;;;;;;5043896;28;20502;-68
2021/09/12 12:09:17;;;;;;;13.57;12.87;;;26.90;98.40;;;;;;5047005;28;20448;-69
2021/09/12 12:11:47;;;;;;;13.83;12.80;;;26.90;98.70;;;;;;5038418;28;20964;-70
2021/09/12 12:14:24;;;;;;;13.50;12.40;;;27.20;98.50;;;;;;5041538;28;20460;-72
2021/09/12 12:16:52;;;;;;;13.43;12.77;;;27.20;97.40;;;;;;5040200;28;21137;-68
2021/09/12 12:19:21;;;;;;;13.33;12.50;;;27.70;98.10;;;;;;5036238;28;20456;-69
2021/09/12 12:21:50;;;;;;;14.53;13.60;;;27.70;97.10;;;;;;5041454;28;20459;-68
2021/09/12 12:24:19;;;;;;;12.87;12.17;;;27.80;97.90;;;;;;5054961;28;20481;-69
2021/09/12 12:26:50;;;;;;;13.63;12.63;;;28.00;96.40;;;;;;5046447;28;20482;-68
2021/09/12 12:29:29;;;;;;;13.17;12.37;;;27.30;97.20;;;;;;5049384;28;20553;-69
2021/09/12 12:31:57;;;;;;;15.23;14.23;;;27.00;97.10;;;;;;5041371;28;20467;-68
2021/09/12 12:34:39;;;;;;;14.93;13.83;;;26.90;97.20;;;;;;5040592;28;20492;-68
2021/09/12 12:37:07;;;;;;;13.60;12.90;;;26.60;98.20;;;;;;5033403;28;20457;-70
2021/09/12 12:39:35;;;;;;;13.50;12.80;;;25.70;99.90;;;;;;5043787;28;20478;-71
2021/09/12 12:42:05;;;;;;;14.10;12.80;;;25.40;99.90;;;;;;5050569;28;20459;-68
2021/09/12 12:44:42;;;;;;;14.00;13.10;;;26.20;99.70;;;;;;5049380;28;20471;-70
2021/09/12 12:47:09;;;;;;;13.30;12.60;;;27.00;99.10;;;;;;5047717;28;20977;-69
2021/09/12 12:49:36;;;;;;;13.30;12.27;;;27.80;97.40;;;;;;5043642;28;20463;-68
2021/09/12 12:52:06;;;;;;;13.77;12.87;;;28.10;97.50;;;;;;5041106;28;20513;-69
2021/09/12 12:54:34;;;;;;;14.60;13.70;;;28.00;96.40;;;;;;5052967;28;20499;-68
2021/09/12 12:57:02;;;;;;;13.67;12.90;;;28.10;96.70;;;;;;5041001;28;20501;-70
2021/09/12 12:59:31;;;;;;;14.23;13.40;;;27.50;96.50;;;;;;5045549;28;20474;-69
2021/09/12 13:01:58;;;;;;;13.07;12.40;;;27.50;96.80;;;;;;5042376;28;20808;-69
2021/09/12 13:04:28;;;;;;;14.23;13.20;;;27.60;96.90;;;;;;5047027;28;20471;-68
2021/09/12 13:06:55;;;;;;;14.20;13.30;;;27.40;97.50;;;;;;5041405;28;21675;-69
2021/09/12 13:09:22;;;;;;;12.80;12.00;;;27.00;97.90;;;;;;5043618;28;20457;-71
2021/09/12 13:11:51;;;;;;;12.37;11.43;;;27.70;97.70;;;;;;5053049;28;20508;-69